Time;durP1;ratioP1;P1;durP2;ratioP2;P2;SDS_P1;SDS_P2;PMS_P1;PMS_P2;Temp;Humidity;BMP_temperature;BMP_pressure;BME280_temperature;BME280_humidity;BME280_pressure;Samples;Min_cycle;Max_cycle;Signal;HPM_P1;HPM_P2
2022/03/31 00:00:39;;;;;;;;;9.25;6.50;;;;;11.59;70.17;97412.66;5035695;28;45426;-73
2022/03/31 00:03:07;;;;;;;;;10.00;7.67;;;;;11.55;70.98;97406.78;5035038;28;45574;-73
2022/03/31 00:05:33;;;;;;;;;8.33;7.33;;;;;11.57;70.72;97404.84;5031626;28;45415;-73
2022/03/31 00:08:00;;;;;;;;;10.25;6.75;;;;;11.56;70.99;97389.16;5034847;28;45718;-73
2022/03/31 00:10:27;;;;;;;;;8.00;6.67;;;;;11.55;70.37;97398.88;5034853;28;45459;-73
2022/03/31 00:12:54;;;;;;;;;7.00;4.75;;;;;11.56;70.04;97400.56;5034319;28;45437;-73
2022/03/31 00:15:21;;;;;;;;;3.75;2.25;;;;;11.56;70.98;97390.00;5032437;28;45252;-73
2022/03/31 00:17:47;;;;;;;;;9.33;5.00;;;;;11.56;70.38;97413.75;5033273;28;45402;-73
2022/03/31 00:20:13;;;;;;;;;6.00;6.00;;;;;11.53;70.82;97390.22;5035558;28;45400;-73
2022/03/31 00:22:39;;;;;;;;;6.00;6.00;;;;;11.49;71.21;97378.19;5034729;28;45396;-73
2022/03/31 00:25:06;;;;;;;;;6.25;5.00;;;;;11.46;71.60;97384.50;5034523;28;45529;-73
2022/03/31 00:27:32;;;;;;;;;7.00;6.00;;;;;11.41;71.98;97368.16;5033135;28;45426;-73
2022/03/31 00:29:57;;;;;;;;;6.75;5.00;;;;;11.38;72.48;97364.91;5035094;28;45511;-73
2022/03/31 00:32:23;;;;;;;;;6.00;6.00;;;;;11.36;72.44;97372.09;5049533;28;45589;-73
2022/03/31 00:34:48;;;;;;;;;5.33;4.67;;;;;11.32;73.01;97370.63;5034784;28;45482;-73
2022/03/31 00:37:14;;;;;;;;;6.00;4.75;;;;;11.29;72.59;97366.41;5034507;28;45550;-73
2022/03/31 00:39:39;;;;;;;;;5.25;5.25;;;;;11.28;72.73;97382.34;5034759;28;45691;-73
2022/03/31 00:42:06;;;;;;;;;7.33;6.00;;;;;11.23;73.77;97356.28;5037975;28;45365;-73
2022/03/31 00:44:32;;;;;;;;;4.75;4.00;;;;;11.24;72.87;97365.03;5040831;28;45523;-73
2022/03/31 00:46:57;;;;;;;;;7.00;5.33;;;;;11.23;72.87;97369.47;5033482;28;45564;-73
2022/03/31 00:49:25;;;;;;;;;6.33;5.33;;;;;11.21;73.20;97362.63;5041775;28;45430;-73
2022/03/31 00:51:52;;;;;;;;;5.50;4.00;;;;;11.19;73.04;97355.66;5041187;28;45516;-73
2022/03/31 00:54:23;;;;;;;;;5.67;4.33;;;;;11.21;72.31;97342.38;5041297;28;45428;-73
2022/03/31 00:56:49;;;;;;;;;4.75;3.50;;;;;11.22;72.27;97348.50;5051464;28;45494;-73
2022/03/31 00:59:17;;;;;;;;;6.67;5.00;;;;;11.23;71.45;97358.91;5041440;28;45368;-73
2022/03/31 01:01:44;;;;;;;;;5.50;4.00;;;;;11.25;71.51;97348.25;5037365;28;45456;-73
2022/03/31 01:04:11;;;;;;;;;7.00;4.75;;;;;11.26;71.31;97336.75;5041081;28;45644;-73
2022/03/31 01:06:37;;;;;;;;;7.75;4.00;;;;;11.29;71.28;97349.72;5040993;28;45543;-73
2022/03/31 01:09:03;;;;;;;;;3.75;3.00;;;;;11.27;71.26;97349.00;5040296;28;45362;-72
2022/03/31 01:11:30;;;;;;;;;5.00;5.00;;;;;11.25;71.15;97357.00;5036429;28;45271;-73
2022/03/31 01:13:55;;;;;;;;;5.75;5.00;;;;;11.25;71.41;97346.47;5040984;28;45441;-73
2022/03/31 01:16:21;;;;;;;;;4.75;4.50;;;;;11.23;70.41;97345.72;5034288;28;45553;-73
2022/03/31 01:18:47;;;;;;;;;5.75;4.00;;;;;11.24;69.92;97351.84;5056695;28;45331;-73
2022/03/31 01:21:13;;;;;;;;;3.75;3.75;;;;;11.22;70.27;97332.66;5039349;28;45440;-73
2022/03/31 01:23:38;;;;;;;;;5.00;5.00;;;;;11.24;69.86;97341.28;5040977;28;45415;-73
2022/03/31 01:26:10;;;;;;;;;4.67;3.67;;;;;11.22;69.62;97325.59;5040844;28;45555;-73
2022/03/31 01:28:43;;;;;;;;;6.67;5.00;;;;;11.22;69.67;97319.47;5033092;28;45438;-73
2022/03/31 01:31:10;;;;;;;;;4.00;4.00;;;;;11.22;68.71;97311.56;5038338;28;45640;-73
2022/03/31 01:33:36;;;;;;;;;3.33;3.33;;;;;11.24;69.06;97318.38;5037702;28;45680;-73
2022/03/31 01:36:05;;;;;;;;;7.25;5.00;;;;;11.23;69.00;97308.78;5041597;28;45519;-72
2022/03/31 01:38:31;;;;;;;;;8.33;5.67;;;;;11.28;68.97;97311.94;5040592;28;45385;-73
2022/03/31 01:40:57;;;;;;;;;4.00;4.00;;;;;11.24;68.96;97318.38;5034833;28;45509;-72
2022/03/31 01:43:23;;;;;;;;;5.33;5.33;;;;;11.22;69.14;97324.75;5038969;28;45460;-73
2022/03/31 01:45:52;;;;;;;;;8.33;6.00;;;;;11.22;69.03;97309.78;5038383;28;45375;-72
2022/03/31 01:48:19;;;;;;;;;6.67;4.67;;;;;11.21;68.75;97302.81;5040861;28;45346;-72
2022/03/31 01:50:44;;;;;;;;;10.00;6.00;;;;;11.19;69.22;97326.66;5039951;28;45398;-72
2022/03/31 01:53:10;;;;;;;;;10.00;5.33;;;;;11.20;68.33;97298.50;5038361;28;46281;-72
2022/03/31 01:55:36;;;;;;;;;9.25;6.00;;;;;11.21;67.69;97299.34;5032636;28;45451;-73
2022/03/31 01:58:02;;;;;;;;;8.75;6.50;;;;;11.23;66.61;97305.34;5046940;28;45469;-72
2022/03/31 02:00:28;;;;;;;;;5.75;2.50;;;;;11.23;67.25;97327.25;5028840;28;45543;-73
2022/03/31 02:02:53;;;;;;;;;4.00;4.00;;;;;11.22;67.00;97296.59;5032096;28;45344;-72
2022/03/31 02:05:19;;;;;;;;;6.00;4.33;;;;;11.22;66.06;97293.94;5036127;28;45557;-72
2022/03/31 02:07:44;;;;;;;;;3.00;3.00;;;;;11.24;64.84;97307.84;5060400;28;45580;-72
2022/03/31 02:10:12;;;;;;;;;5.75;4.50;;;;;11.26;65.81;97295.38;5036547;28;45361;-72
2022/03/31 02:12:38;;;;;;;;;4.50;4.00;;;;;11.31;65.12;97281.88;5029071;28;46399;-73
2022/03/31 02:15:05;;;;;;;;;4.50;4.50;;;;;11.33;64.58;97279.97;5052691;28;45416;-73
2022/03/31 02:17:30;;;;;;;;;5.75;5.75;;;;;11.34;63.69;97279.88;5034989;28;45410;-73
2022/03/31 02:19:56;;;;;;;;;3.00;3.00;;;;;11.36;63.94;97287.66;5036958;28;45620;-72
2022/03/31 02:22:22;;;;;;;;;10.50;5.50;;;;;11.38;63.39;97267.31;5024167;28;45393;-72
2022/03/31 02:24:48;;;;;;;;;5.00;3.00;;;;;11.37;64.05;97277.00;5036682;28;45349;-73
2022/03/31 02:27:14;;;;;;;;;4.00;4.00;;;;;11.38;64.08;97275.22;5024607;28;45339;-73
2022/03/31 02:29:39;;;;;;;;;4.75;4.00;;;;;11.37;63.69;97270.88;5036734;28;45339;-73
2022/03/31 02:32:06;;;;;;;;;3.25;2.75;;;;;11.36;63.09;97267.41;5031293;28;46578;-72
2022/03/31 02:34:31;;;;;;;;;6.00;4.75;;;;;11.36;63.34;97262.13;5036744;28;45297;-73
2022/03/31 02:36:57;;;;;;;;;7.75;5.50;;;;;11.37;63.38;97258.53;5027280;28;45343;-72
2022/03/31 02:39:23;;;;;;;;;9.00;5.75;;;;;11.36;63.23;97250.75;5036491;28;45498;-72
2022/03/31 02:41:48;;;;;;;;;6.50;2.50;;;;;11.36;63.00;97256.84;5035874;28;46255;-73
2022/03/31 02:44:15;;;;;;;;;5.00;5.00;;;;;11.36;62.57;97262.13;5036535;28;45386;-72
2022/03/31 02:46:41;;;;;;;;;8.00;3.50;;;;;11.38;62.28;97254.09;5029619;28;45332;-72
2022/03/31 02:49:07;;;;;;;;;4.00;4.00;;;;;11.39;61.51;97253.16;5036123;28;45818;-73
2022/03/31 02:51:32;;;;;;;;;7.75;6.00;;;;;11.41;61.55;97251.22;5025367;28;45500;-73
2022/03/31 02:56:42;;;;;;;;;4.25;4.25;;;;;11.46;61.27;97246.47;5044775;28;45294;-72
2022/03/31 02:59:07;;;;;;;;;2.50;1.75;;;;;11.48;60.58;97237.47;5051920;28;45528;-73
2022/03/31 03:01:33;;;;;;;;;5.50;3.00;;;;;11.49;60.52;97238.31;5030254;28;46204;-73
2022/03/31 03:03:59;;;;;;;;;6.00;5.00;;;;;11.51;60.11;97233.78;5035994;28;45301;-73
2022/03/31 03:06:25;;;;;;;;;8.25;4.00;;;;;11.52;60.10;97236.31;5050403;28;45539;-73
2022/03/31 03:08:51;;;;;;;;;7.25;4.25;;;;;11.56;59.49;97244.00;5034810;28;45383;-73
2022/03/31 03:11:17;;;;;;;;;4.00;3.00;;;;;11.54;59.87;97239.69;5031260;28;46412;-72
2022/03/31 03:13:44;;;;;;;;;8.50;4.00;;;;;11.57;59.46;97249.13;5051117;28;45395;-73
2022/03/31 03:16:11;;;;;;;;;3.75;3.75;;;;;11.58;59.62;97240.25;5050064;28;45408;-73
2022/03/31 03:18:37;;;;;;;;;4.00;4.00;;;;;11.59;60.07;97226.13;5036145;28;45392;-73
2022/03/31 03:21:04;;;;;;;;;10.00;9.33;;;;;11.62;61.83;97232.97;5036323;28;45310;-73
2022/03/31 03:23:31;;;;;;;;;10.00;6.00;;;;;11.67;61.12;97226.41;5035952;28;45618;-73
2022/03/31 03:25:56;;;;;;;;;7.00;7.00;;;;;11.72;62.68;97221.63;5035358;28;45440;-73
2022/03/31 03:28:22;;;;;;;;;8.75;8.00;;;;;11.76;63.06;97227.53;5027976;28;45243;-73
2022/03/31 03:30:47;;;;;;;;;11.25;8.75;;;;;11.78;62.46;97230.91;5033081;28;48479;-73
2022/03/31 03:33:12;;;;;;;;;15.67;11.00;;;;;11.80;64.81;97227.19;5035781;28;45416;-73
2022/03/31 03:35:38;;;;;;;;;11.00;9.33;;;;;11.82;64.25;97222.63;5035589;28;45716;-73
2022/03/31 03:38:03;;;;;;;;;12.00;10.00;;;;;11.82;64.81;97221.78;5029760;28;45474;-72
2022/03/31 03:40:31;;;;;;;;;13.00;12.00;;;;;11.84;64.72;97226.00;5034164;28;45534;-72
2022/03/31 03:42:57;;;;;;;;;11.00;8.67;;;;;11.89;64.27;97225.66;5025933;28;45160;-72
2022/03/31 03:45:22;;;;;;;;;8.67;8.00;;;;;11.91;64.75;97221.09;5033758;28;45291;-72
2022/03/31 03:47:48;;;;;;;;;8.75;7.00;;;;;11.93;63.87;97211.25;5030935;28;45487;-73
2022/03/31 03:50:14;;;;;;;;;14.00;12.33;;;;;11.98;64.50;97210.91;5033645;28;46508;-72
2022/03/31 03:52:39;;;;;;;;;13.67;12.33;;;;;12.01;64.36;97210.69;5032459;28;45453;-72
2022/03/31 03:55:06;;;;;;;;;10.75;7.75;;;;;12.02;63.99;97215.00;5051078;28;45512;-73
2022/03/31 03:57:31;;;;;;;;;15.33;12.00;;;;;12.04;65.41;97215.75;5044475;28;45479;-73
2022/03/31 03:59:57;;;;;;;;;7.50;6.00;;;;;12.04;62.51;97215.75;5035235;28;46204;-72
2022/03/31 04:02:22;;;;;;;;;10.25;9.50;;;;;12.00;62.97;97223.03;5032011;28;45377;-73
2022/03/31 04:04:48;;;;;;;;;8.00;7.25;;;;;11.99;62.29;97213.44;5035443;28;45374;-73
2022/03/31 04:07:13;;;;;;;;;12.33;9.67;;;;;12.02;63.24;97217.66;5042295;28;45461;-73
2022/03/31 04:09:38;;;;;;;;;9.50;8.00;;;;;12.03;62.78;97219.34;5033878;28;47441;-73
2022/03/31 04:12:04;;;;;;;;;13.33;13.33;;;;;12.03;65.17;97222.81;5030270;28;45525;-73
2022/03/31 04:14:30;;;;;;;;;7.25;6.50;;;;;12.01;62.95;97218.59;5035164;28;45429;-73
2022/03/31 04:16:56;;;;;;;;;7.75;5.00;;;;;11.99;62.34;97216.09;5030857;28;45348;-73
2022/03/31 04:19:22;;;;;;;;;15.33;12.33;;;;;11.97;64.88;97217.16;5034646;28;45382;-73
2022/03/31 04:21:47;;;;;;;;;9.00;6.33;;;;;11.95;64.66;97216.41;5032712;28;45466;-72
2022/03/31 04:24:13;;;;;;;;;9.00;8.00;;;;;11.94;64.15;97215.59;5034666;28;45519;-72
2022/03/31 04:26:38;;;;;;;;;14.33;13.67;;;;;11.94;66.07;97218.22;5031423;28;45369;-73
2022/03/31 04:29:08;;;;;;;;;11.00;10.00;;;;;11.94;66.01;97220.03;5034615;28;46142;-73
2022/03/31 04:31:42;;;;;;;;;9.33;9.00;;;;;11.96;66.68;97213.66;5033532;28;45460;-73
2022/03/31 04:34:09;;;;;;;;;14.00;11.00;;;;;11.98;66.46;97211.75;5034810;28;45425;-73
2022/03/31 04:36:34;;;;;;;;;13.67;11.00;;;;;12.00;65.28;97214.28;5030743;28;45470;-73
2022/03/31 04:39:00;;;;;;;;;12.67;12.67;;;;;12.00;66.96;97211.63;5033805;28;45418;-73
2022/03/31 04:41:26;;;;;;;;;12.33;10.00;;;;;11.97;66.56;97211.88;5036032;28;45305;-73
2022/03/31 04:43:53;;;;;;;;;12.67;8.00;;;;;11.96;66.74;97208.38;5066703;28;45414;-73
2022/03/31 04:46:19;;;;;;;;;9.33;7.67;;;;;11.97;67.07;97207.44;5024815;28;45390;-73
2022/03/31 04:48:45;;;;;;;;;9.25;8.25;;;;;12.00;67.57;97209.00;5030480;28;47277;-73
2022/03/31 04:51:10;;;;;;;;;9.00;8.00;;;;;12.01;66.35;97203.59;5030333;28;45275;-73
2022/03/31 04:53:36;;;;;;;;;11.33;8.00;;;;;12.04;65.63;97207.81;5031634;28;45598;-72
2022/03/31 04:56:02;;;;;;;;;6.25;4.00;;;;;11.99;63.34;97205.53;5027447;28;45488;-73
2022/03/31 04:58:28;;;;;;;;;9.00;7.00;;;;;12.01;63.91;97208.03;5064602;28;47009;-73
2022/03/31 05:00:53;;;;;;;;;6.50;5.50;;;;;12.01;64.54;97215.97;5028147;28;45370;-73
2022/03/31 05:03:18;;;;;;;;;8.75;7.50;;;;;12.02;65.30;97210.56;5032397;28;45406;-73
2022/03/31 05:05:44;;;;;;;;;4.50;4.50;;;;;12.06;65.02;97219.09;5031650;28;45462;-73
2022/03/31 05:08:10;;;;;;;;;8.25;6.75;;;;;12.07;65.38;97211.03;5031570;28;46459;-73
2022/03/31 05:10:35;;;;;;;;;9.33;8.00;;;;;12.10;65.72;97213.44;5030468;28;45400;-73
2022/03/31 05:13:01;;;;;;;;;5.00;5.00;;;;;12.11;65.50;97209.84;5018067;28;45430;-73
2022/03/31 05:15:26;;;;;;;;;3.00;2.25;;;;;12.11;65.16;97206.38;5033523;28;45339;-73
2022/03/31 05:17:52;;;;;;;;;8.25;6.50;;;;;12.12;64.57;97211.53;5033663;28;45789;-73
2022/03/31 05:20:18;;;;;;;;;9.25;8.00;;;;;12.13;64.79;97205.28;5031427;28;45370;-73
2022/03/31 05:22:43;;;;;;;;;11.75;9.75;;;;;12.15;65.61;97207.81;5031517;28;45381;-73
2022/03/31 05:25:10;;;;;;;;;18.50;10.75;;;;;12.14;65.71;97217.53;5034129;28;45267;-73
2022/03/31 05:27:43;;;;;;;;;5.00;4.25;;;;;12.14;65.01;97212.25;5048426;28;47186;-73
2022/03/31 05:30:10;;;;;;;;;11.75;9.75;;;;;12.15;66.29;97213.09;5036374;28;45419;-73
2022/03/31 05:32:35;;;;;;;;;9.00;7.50;;;;;12.13;66.29;97210.56;5030462;28;45486;-73
2022/03/31 05:35:01;;;;;;;;;9.67;7.67;;;;;12.13;66.59;97209.72;5036306;28;45419;-73
2022/03/31 05:37:26;;;;;;;;;14.25;11.00;;;;;12.11;66.76;97209.00;5024468;28;45505;-73
2022/03/31 05:39:52;;;;;;;;;9.00;7.25;;;;;12.11;66.60;97204.56;5036896;28;45417;-73
2022/03/31 05:42:17;;;;;;;;;8.67;8.67;;;;;12.13;66.96;97205.28;5029773;28;45431;-66
2022/03/31 05:44:45;;;;;;;;;8.33;8.33;;;;;12.21;66.89;97204.72;5036648;28;45434;-66
2022/03/31 05:47:11;;;;;;;;;10.00;8.33;;;;;12.26;67.10;97202.53;5028106;28;46578;-67
2022/03/31 05:49:36;;;;;;;;;9.00;8.00;;;;;12.30;66.92;97206.63;5035991;28;45491;-67
2022/03/31 05:52:02;;;;;;;;;10.00;10.00;;;;;12.35;67.14;97209.78;5030566;28;45537;-67
2022/03/31 05:54:28;;;;;;;;;12.33;11.00;;;;;12.40;66.78;97212.06;5052059;28;45369;-67
2022/03/31 05:56:54;;;;;;;;;11.00;11.00;;;;;12.43;67.24;97209.16;5031396;28;45534;-67
2022/03/31 05:59:19;;;;;;;;;10.67;9.33;;;;;12.48;67.42;97210.50;5034809;28;45274;-67
2022/03/31 06:01:45;;;;;;;;;14.00;12.00;;;;;12.52;67.41;97211.94;5051631;28;45440;-67
2022/03/31 06:04:10;;;;;;;;;14.33;11.67;;;;;12.55;67.42;97208.22;5034964;28;45409;-67
2022/03/31 06:06:36;;;;;;;;;8.00;8.00;;;;;12.56;67.61;97212.53;5029797;28;45451;-67
2022/03/31 06:09:01;;;;;;;;;10.50;8.25;;;;;12.60;67.89;97208.69;5036765;28;45396;-67
2022/03/31 06:11:27;;;;;;;;;12.67;9.00;;;;;12.62;67.70;97213.84;5035798;28;45512;-67
2022/03/31 06:13:52;;;;;;;;;11.67;10.67;;;;;12.66;67.73;97210.84;5036357;28;45378;-67
2022/03/31 06:16:17;;;;;;;;;10.00;10.00;;;;;12.71;67.68;97207.84;5032127;28;45511;-67
2022/03/31 06:18:44;;;;;;;;;16.00;13.00;;;;;12.75;67.57;97209.25;5036488;28;45462;-67
2022/03/31 06:21:09;;;;;;;;;12.00;10.67;;;;;12.79;67.51;97208.06;5035988;28;45436;-67
2022/03/31 06:23:34;;;;;;;;;17.33;14.00;;;;;12.81;67.55;97214.06;5027835;28;45319;-69
2022/03/31 06:26:00;;;;;;;;;16.33;13.33;;;;;12.79;67.69;97214.19;5033489;28;46620;-67
2022/03/31 06:28:28;;;;;;;;;10.00;10.00;;;;;12.80;67.71;97210.59;5036297;28;45305;-68
2022/03/31 06:30:54;;;;;;;;;11.67;11.00;;;;;12.80;67.89;97220.31;5035132;28;45433;-68
2022/03/31 06:33:20;;;;;;;;;12.33;9.00;;;;;12.81;67.92;97219.38;5036019;28;45538;-69
2022/03/31 06:35:46;;;;;;;;;13.33;10.67;;;;;12.81;66.83;97222.00;5035788;28;45468;-68
2022/03/31 06:38:12;;;;;;;;;13.00;8.75;;;;;12.84;66.05;97219.13;5035945;28;45436;-67
2022/03/31 06:40:40;;;;;;;;;11.67;9.00;;;;;12.86;66.07;97225.97;5064528;27;45373;-69
2022/03/31 06:43:05;;;;;;;;;22.67;18.67;;;;;12.87;66.48;97225.03;5026312;28;46223;-65
2022/03/31 06:45:32;;;;;;;;;15.33;12.33;;;;;12.89;66.97;97223.09;5033246;28;45363;-66
2022/03/31 06:47:58;;;;;;;;;15.00;14.67;;;;;12.91;67.45;97223.78;5030548;28;45396;-66
2022/03/31 06:50:24;;;;;;;;;14.00;14.00;;;;;12.93;67.57;97228.97;5034338;28;45244;-65
2022/03/31 06:52:50;;;;;;;;;12.25;10.75;;;;;12.94;67.70;97223.53;5033698;28;45366;-65
2022/03/31 06:55:15;;;;;;;;;14.00;12.67;;;;;12.98;67.70;97223.31;5034954;28;45598;-65
2022/03/31 06:57:41;;;;;;;;;11.00;9.25;;;;;13.01;68.04;97220.41;5032321;28;45440;-65
2022/03/31 07:00:07;;;;;;;;;14.75;12.00;;;;;13.06;67.61;97218.25;5035750;28;45432;-65
2022/03/31 07:02:32;;;;;;;;;19.00;12.33;;;;;13.07;67.28;97219.94;5035119;28;45346;-65
2022/03/31 07:04:58;;;;;;;;;15.33;13.00;;;;;13.07;67.33;97218.09;5034925;28;45451;-65
2022/03/31 07:07:24;;;;;;;;;14.00;14.00;;;;;13.08;67.37;97217.16;5031087;28;45578;-65
2022/03/31 07:09:51;;;;;;;;;13.67;13.33;;;;;13.08;67.59;97217.16;5035528;28;45393;-65
2022/03/31 07:12:17;;;;;;;;;14.00;12.33;;;;;13.09;67.14;97212.69;5031166;28;45371;-65
2022/03/31 07:14:43;;;;;;;;;11.00;10.00;;;;;13.09;66.67;97218.00;5033247;28;46009;-65
2022/03/31 07:17:10;;;;;;;;;9.50;9.00;;;;;13.10;66.33;97220.50;5034452;28;45381;-66
2022/03/31 07:19:35;;;;;;;;;8.50;7.00;;;;;13.11;66.29;97219.53;5035993;28;45299;-65
2022/03/31 07:22:01;;;;;;;;;16.33;11.33;;;;;13.12;65.62;97229.16;5034209;28;45515;-66
2022/03/31 07:24:27;;;;;;;;;11.67;9.67;;;;;13.15;65.98;97226.31;5035262;28;46575;-65
2022/03/31 07:26:52;;;;;;;;;9.67;7.00;;;;;13.16;65.86;97224.50;5031409;28;45455;-65
2022/03/31 07:29:18;;;;;;;;;12.00;10.00;;;;;13.16;65.52;97238.59;5035711;28;45474;-65
2022/03/31 07:31:43;;;;;;;;;11.33;7.00;;;;;13.18;65.49;97231.38;5029142;28;45528;-65
2022/03/31 07:34:09;;;;;;;;;7.50;6.50;;;;;13.19;65.39;97232.22;5032643;28;46592;-66
2022/03/31 07:36:34;;;;;;;;;19.00;17.67;;;;;13.17;65.34;97227.03;5034632;28;45464;-67
2022/03/31 07:39:00;;;;;;;;;9.25;8.50;;;;;13.16;65.36;97235.09;5035512;28;45342;-67
2022/03/31 07:41:25;;;;;;;;;11.33;9.67;;;;;13.12;65.43;97233.63;5028287;28;45399;-67
2022/03/31 07:43:51;;;;;;;;;8.33;8.33;;;;;13.10;65.30;97228.44;5043203;28;45602;-67
2022/03/31 07:46:16;;;;;;;;;7.33;7.33;;;;;13.06;64.64;97231.47;5034556;28;45348;-67
2022/03/31 07:48:41;;;;;;;;;12.50;10.50;;;;;13.04;64.97;97228.13;5017623;28;45490;-66
2022/03/31 07:51:08;;;;;;;;;12.00;10.00;;;;;13.07;64.85;97236.63;5027852;28;45315;-65
2022/03/31 07:53:34;;;;;;;;;11.33;8.00;;;;;13.07;63.95;97239.28;5032012;28;45369;-66
2022/03/31 07:56:00;;;;;;;;;12.33;9.33;;;;;13.09;64.28;97228.56;5030435;28;45425;-66
2022/03/31 07:58:26;;;;;;;;;11.50;8.00;;;;;13.08;64.36;97232.19;5032048;28;45518;-65
2022/03/31 08:00:52;;;;;;;;;13.00;11.67;;;;;13.02;62.72;97222.94;5030327;28;45387;-67
2022/03/31 08:03:22;;;;;;;;;16.33;12.33;;;;;12.94;63.21;97226.19;5031466;28;45705;-65
2022/03/31 08:05:48;;;;;;;;;15.33;13.00;;;;;12.92;62.73;97229.91;5049610;28;45395;-66
2022/03/31 08:08:13;;;;;;;;;14.00;12.33;;;;;12.79;62.37;97238.00;5034509;28;45441;-65
2022/03/31 08:10:40;;;;;;;;;11.33;9.67;;;;;12.63;62.68;97237.53;5046978;28;45313;-65
2022/03/31 08:13:06;;;;;;;;;12.67;12.67;;;;;12.52;62.55;97243.66;5034209;28;45656;-65
2022/03/31 08:15:32;;;;;;;;;10.33;10.00;;;;;12.40;63.85;97251.69;5034459;28;45517;-65
2022/03/31 08:17:58;;;;;;;;;15.00;13.67;;;;;12.26;64.81;97251.91;5035146;28;45417;-65
2022/03/31 08:20:25;;;;;;;;;16.00;13.33;;;;;12.12;65.47;97242.38;5035393;28;45458;-67
2022/03/31 08:22:51;;;;;;;;;15.00;10.67;;;;;12.05;66.87;97242.03;5033115;28;46537;-66
2022/03/31 08:25:17;;;;;;;;;15.00;11.33;;;;;11.97;67.71;97243.56;5032725;28;45439;-67
2022/03/31 08:27:44;;;;;;;;;15.00;14.00;;;;;11.92;66.70;97248.34;5018789;28;45326;-67
2022/03/31 08:30:16;;;;;;;;;20.00;17.33;;;;;11.91;66.79;97241.38;5034654;28;45582;-66
2022/03/31 08:32:46;;;;;;;;;17.33;14.33;;;;;11.90;66.55;97245.00;5033984;28;46499;-67
2022/03/31 08:35:12;;;;;;;;;16.00;13.67;;;;;11.88;66.03;97238.03;5034363;28;45417;-67
2022/03/31 08:37:38;;;;;;;;;10.67;8.00;;;;;11.92;65.63;97243.06;5034257;28;45486;-66
2022/03/31 08:40:05;;;;;;;;;15.33;14.00;;;;;11.91;65.52;97236.94;5066949;28;45254;-66
2022/03/31 08:42:31;;;;;;;;;20.33;15.33;;;;;11.90;65.77;97242.34;5026863;28;45341;-66
2022/03/31 08:44:58;;;;;;;;;18.67;15.67;;;;;11.89;66.03;97244.16;5033976;28;45303;-66
2022/03/31 08:47:26;;;;;;;;;12.67;12.00;;;;;11.87;65.64;97238.97;5021837;28;45383;-66
2022/03/31 08:49:53;;;;;;;;;17.67;15.00;;;;;11.86;65.67;97250.50;5034013;28;45436;-66
2022/03/31 08:52:18;;;;;;;;;13.67;13.00;;;;;11.91;65.31;97244.00;5043056;28;45746;-66
2022/03/31 08:54:44;;;;;;;;;23.33;16.67;;;;;11.95;65.40;97245.47;5028209;28;45281;-67
2022/03/31 08:57:09;;;;;;;;;18.33;16.67;;;;;11.98;65.03;97235.53;5031502;28;45396;-67
2022/03/31 08:59:34;;;;;;;;;19.00;15.00;;;;;12.03;64.81;97248.38;5034197;28;45657;-67
2022/03/31 09:02:00;;;;;;;;;19.33;17.33;;;;;12.07;64.92;97236.59;5029653;28;45512;-66
2022/03/31 09:04:26;;;;;;;;;24.67;20.00;;;;;12.13;64.91;97255.47;5033285;28;45308;-67
2022/03/31 09:07:02;;;;;;;;;19.67;16.67;;;;;12.16;65.13;97244.69;5033436;28;45199;-66
2022/03/31 09:09:28;;;;;;;;;27.33;22.67;;;;;12.17;65.53;97253.47;5037424;28;45487;-68
2022/03/31 09:11:54;;;;;;;;;20.00;15.00;;;;;12.13;65.53;97249.34;5031609;28;45317;-66
2022/03/31 09:14:29;;;;;;;;;24.33;15.67;;;;;12.10;66.94;97260.16;5037517;28;45630;-66
2022/03/31 09:16:55;;;;;;;;;25.00;24.33;;;;;12.03;67.87;97266.88;5037552;28;45481;-66
2022/03/31 09:19:20;;;;;;;;;21.67;19.67;;;;;11.95;68.40;97264.78;5037858;28;45342;-66
2022/03/31 09:21:50;;;;;;;;;17.00;15.33;;;;;11.88;68.62;97274.16;5035282;28;45937;-65
2022/03/31 09:24:16;;;;;;;;;20.00;15.00;;;;;11.75;69.19;97268.88;5037012;28;45343;-66
2022/03/31 09:26:49;;;;;;;;;10.33;9.00;;;;;11.60;69.87;97264.75;5032242;28;45525;-66
2022/03/31 09:29:17;;;;;;;;;16.33;15.00;;;;;11.41;72.20;97274.97;5035136;28;45367;-65
2022/03/31 09:31:43;;;;;;;;;12.00;10.67;;;;;11.19;73.83;97278.34;5031727;28;45380;-63
2022/03/31 09:34:09;;;;;;;;;13.33;13.00;;;;;10.97;75.04;97273.75;5036447;28;45559;-63
2022/03/31 09:36:37;;;;;;;;;13.00;11.33;;;;;10.84;74.99;97273.78;5028380;28;45424;-63
2022/03/31 09:39:08;;;;;;;;;11.33;10.00;;;;;10.80;74.51;97276.75;5036239;28;45535;-63
2022/03/31 09:41:36;;;;;;;;;10.00;10.00;;;;;10.80;76.11;97272.31;5032147;28;45439;-64
2022/03/31 09:44:07;;;;;;;;;14.33;12.00;;;;;10.84;76.68;97272.94;5035669;28;45366;-64
2022/03/31 09:46:35;;;;;;;;;18.00;13.00;;;;;10.88;76.68;97269.16;5046932;28;45254;-63
2022/03/31 09:49:30;;;;;;;;;15.67;11.00;;;;;11.00;76.51;97268.25;5023574;28;45318;-63
2022/03/31 09:52:04;;;;;;;;;10.00;10.00;;;;;11.11;75.33;97260.41;5028963;28;48741;-63
2022/03/31 09:54:32;;;;;;;;;12.67;11.33;;;;;11.18;74.59;97258.19;5037100;28;45231;-63
2022/03/31 09:57:00;;;;;;;;;12.33;10.00;;;;;11.28;74.79;97256.56;5050171;28;45419;-64
2022/03/31 09:59:38;;;;;;;;;17.00;10.00;;;;;11.36;75.04;97256.84;5036722;28;45412;-64
2022/03/31 10:02:04;;;;;;;;;17.00;17.00;;;;;11.48;76.18;97255.09;5033090;28;45421;-64
2022/03/31 10:04:31;;;;;;;;;16.33;14.67;;;;;11.58;74.55;97248.19;5065723;28;45814;-63
2022/03/31 10:06:57;;;;;;;;;16.33;13.33;;;;;11.62;73.98;97241.72;5033169;28;45487;-64
2022/03/31 10:09:24;;;;;;;;;14.33;14.33;;;;;11.68;74.44;97238.66;5034353;28;45389;-64
2022/03/31 10:12:31;;;;;;;;;15.67;12.00;;;;;11.81;73.66;97242.06;5033054;28;46164;-64
2022/03/31 10:15:12;;;;;;;;;7.00;7.00;;;;;11.95;71.83;97234.91;5035638;28;45266;-64
2022/03/31 10:17:38;;;;;;;;;13.00;12.00;;;;;12.02;70.76;97233.50;5034003;28;45501;-64
2022/03/31 10:20:10;;;;;;;;;14.67;13.00;;;;;12.17;71.59;97227.03;5036491;28;45421;-64
2022/03/31 10:25:21;;;;;;;;;15.00;11.67;;;;;12.53;71.26;97232.13;5035899;28;45416;-63
2022/03/31 10:27:49;;;;;;;;;9.67;8.33;;;;;12.68;68.80;97232.72;5036121;28;45454;-63
2022/03/31 10:30:21;;;;;;;;;9.00;8.67;;;;;12.76;67.84;97235.59;5034849;28;45374;-64
2022/03/31 10:32:55;;;;;;;;;13.00;10.67;;;;;12.83;67.10;97243.88;5036410;28;45947;-63
2022/03/31 10:35:27;;;;;;;;;11.00;10.00;;;;;12.85;67.80;97237.53;5051609;28;45488;-63
2022/03/31 10:37:54;;;;;;;;;14.00;11.00;;;;;12.85;66.76;97236.69;5036634;28;45207;-63
2022/03/31 10:40:32;;;;;;;;;11.33;11.00;;;;;12.74;65.09;97242.78;5035700;28;45236;-64
2022/03/31 10:42:58;;;;;;;;;11.00;10.00;;;;;12.61;64.89;97246.53;5036410;28;46078;-63
2022/03/31 10:45:38;;;;;;;;;9.00;8.67;;;;;12.44;64.87;97253.13;5035897;28;45454;-66
2022/03/31 10:48:19;;;;;;;;;9.00;7.00;;;;;12.23;63.65;97251.16;5036637;28;45425;-66
2022/03/31 10:50:46;;;;;;;;;7.00;5.25;;;;;12.03;63.92;97262.44;5051669;28;45430;-65
2022/03/31 10:53:12;;;;;;;;;8.33;7.33;;;;;11.90;63.11;97274.03;5036045;28;46716;-65
2022/03/31 10:55:48;;;;;;;;;7.33;7.33;;;;;11.78;62.27;97254.66;5035969;28;45341;-67
2022/03/31 10:58:28;;;;;;;;;13.67;11.00;;;;;11.69;63.51;97252.69;5036189;28;45264;-66
2022/03/31 11:00:55;;;;;;;;;9.33;8.00;;;;;11.60;63.05;97270.03;5051426;28;45825;-66
2022/03/31 11:03:21;;;;;;;;;9.33;8.33;;;;;11.48;63.30;97260.38;5035863;28;45436;-65
2022/03/31 11:05:48;;;;;;;;;12.00;9.67;;;;;11.36;65.13;97270.03;5035857;28;45308;-66
2022/03/31 11:08:17;;;;;;;;;16.33;14.33;;;;;11.29;64.86;97260.03;5035915;28;45333;-65
2022/03/31 11:10:49;;;;;;;;;9.67;8.00;;;;;11.16;66.12;97255.66;5035168;28;45452;-65
2022/03/31 11:13:16;;;;;;;;;12.33;8.67;;;;;11.02;66.98;97254.97;5051138;28;47386;-65
2022/03/31 11:15:46;;;;;;;;;10.33;8.67;;;;;10.88;69.38;97258.59;5034494;28;45387;-66
2022/03/31 11:18:11;;;;;;;;;7.67;7.33;;;;;10.78;69.90;97239.94;5036051;28;45397;-65
2022/03/31 11:20:37;;;;;;;;;7.00;5.00;;;;;10.70;70.84;97244.09;5035897;28;45339;-65
2022/03/31 11:23:06;;;;;;;;;8.33;8.00;;;;;10.64;70.96;97237.44;5035388;28;46315;-66
2022/03/31 11:25:32;;;;;;;;;10.00;9.00;;;;;10.61;72.93;97245.56;5033144;28;45469;-64
2022/03/31 11:28:05;;;;;;;;;8.67;6.67;;;;;10.63;71.99;97242.81;5035584;28;45416;-64
2022/03/31 11:30:32;;;;;;;;;6.00;5.67;;;;;10.69;71.71;97245.88;5035436;28;45362;-65